Time;durP1;ratioP1;P1;durP2;ratioP2;P2;SDS_P1;SDS_P2;PMS_P1;PMS_P2;Temp;Humidity;BMP_temperature;BMP_pressure;BME280_temperature;BME280_humidity;BME280_pressure;Samples;Min_cycle;Max_cycle;Signal;HPM_P1;HPM_P2
2023/04/04 00:01:23;;;;;;;0.80;0.10;;;0.40;99.90;;;;;;5036602;28;20041;-81
2023/04/04 00:03:50;;;;;;;0.63;0.10;;;0.50;99.90;;;;;;5020820;28;20035;-81
2023/04/04 00:06:19;;;;;;;0.52;0.20;;;0.40;99.90;;;;;;5018687;28;20061;-80
2023/04/04 00:08:45;;;;;;;0.60;0.20;;;0.50;99.90;;;;;;5012108;28;20140;-81
2023/04/04 00:11:12;;;;;;;0.68;0.20;;;0.50;99.90;;;;;;5012908;28;20032;-80
2023/04/04 00:13:38;;;;;;;0.98;0.20;;;0.40;99.90;;;;;;5034471;28;20446;-81
2023/04/04 00:16:05;;;;;;;1.15;0.10;;;0.30;99.90;;;;;;5012209;28;20045;-80
2023/04/04 00:18:31;;;;;;;0.55;0.10;;;0.30;99.90;;;;;;5018026;28;20053;-80
2023/04/04 00:20:58;;;;;;;1.15;0.10;;;0.30;99.90;;;;;;5021358;28;20036;-81
2023/04/04 00:23:24;;;;;;;0.63;0.10;;;0.30;99.90;;;;;;5032557;28;20033;-81
2023/04/04 00:25:53;;;;;;;0.90;0.10;;;0.30;99.90;;;;;;5017109;28;20048;-80
2023/04/04 00:28:20;;;;;;;0.73;0.10;;;0.30;99.90;;;;;;5023166;28;20550;-80
2023/04/04 00:30:46;;;;;;;1.17;0.20;;;0.10;99.90;;;;;;5026506;28;20440;-81
2023/04/04 00:33:12;;;;;;;1.15;0.20;;;0.20;99.90;;;;;;5025597;28;20312;-80
2023/04/04 00:35:38;;;;;;;0.60;0.20;;;0.10;99.90;;;;;;5013790;28;20030;-80
2023/04/04 00:38:04;;;;;;;0.52;0.13;;;0.20;99.90;;;;;;5017505;28;20777;-80
2023/04/04 00:40:30;;;;;;;0.90;0.10;;;0.20;99.90;;;;;;5017945;28;20083;-80
2023/04/04 00:42:56;;;;;;;2.42;0.20;;;0.00;99.90;;;;;;5015616;28;20545;-80
2023/04/04 00:45:22;;;;;;;0.88;0.20;;;0.10;99.90;;;;;;5029759;28;20021;-80
2023/04/04 00:47:49;;;;;;;0.63;0.20;;;0.10;99.90;;;;;;5024988;28;20032;-80
2023/04/04 00:50:15;;;;;;;1.30;0.20;;;0.00;99.90;;;;;;5039671;28;20480;-80
2023/04/04 00:52:41;;;;;;;0.98;0.28;;;0.00;99.90;;;;;;5023845;28;20029;-80
2023/04/04 00:55:07;;;;;;;0.95;0.20;;;0.10;99.90;;;;;;5024481;28;20040;-80
2023/04/04 00:57:33;;;;;;;1.83;0.20;;;0.00;99.90;;;;;;5029554;28;20051;-81
2023/04/04 01:00:05;;;;;;;0.82;0.20;;;0.10;99.90;;;;;;5014966;28;20141;-81
2023/04/04 01:02:30;;;;;;;1.00;0.20;;;-0.10;99.90;;;;;;5044190;28;20073;-80
2023/04/04 01:04:56;;;;;;;0.80;0.30;;;-0.20;99.90;;;;;;5024201;28;20029;-80
2023/04/04 01:07:22;;;;;;;0.90;0.20;;;-0.20;99.90;;;;;;5039863;28;20039;-80
2023/04/04 01:09:49;;;;;;;1.00;0.20;;;-0.10;99.90;;;;;;5027561;28;20029;-80
2023/04/04 01:12:15;;;;;;;1.17;0.30;;;0.00;99.90;;;;;;5023281;28;20589;-80
2023/04/04 01:14:41;;;;;;;1.25;0.20;;;0.00;99.90;;;;;;5024435;28;20080;-81
2023/04/04 01:17:07;;;;;;;1.35;0.30;;;0.00;99.90;;;;;;5017518;28;20065;-81
2023/04/04 01:19:37;;;;;;;1.38;0.20;;;-0.10;99.90;;;;;;5027936;28;20036;-81
2023/04/04 01:22:10;;;;;;;0.73;0.20;;;-0.20;99.90;;;;;;5035404;28;20072;-80
2023/04/04 01:24:41;;;;;;;1.52;0.30;;;-0.10;99.90;;;;;;5022309;28;20071;-81
2023/04/04 01:27:07;;;;;;;0.68;0.20;;;-0.20;99.90;;;;;;5028216;28;20032;-81
2023/04/04 01:29:39;;;;;;;1.05;0.20;;;-0.30;99.90;;;;;;5025438;28;20033;-81
2023/04/04 01:32:17;;;;;;;1.83;0.20;;;-0.30;99.90;;;;;;5027031;28;20040;-80
2023/04/04 01:35:20;;;;;;;1.30;0.20;;;-0.30;99.90;;;;;;5029317;28;20441;-81
2023/04/04 01:38:16;;;;;;;0.70;0.20;;;-0.40;99.90;;;;;;5019983;28;20025;-81
2023/04/04 01:40:49;;;;;;;0.95;0.30;;;-0.40;99.90;;;;;;5034566;28;20033;-80
2023/04/04 01:43:16;;;;;;;1.33;0.20;;;-0.40;99.90;;;;;;5045998;28;20028;-81
2023/04/04 01:45:45;;;;;;;1.27;0.30;;;-0.50;99.90;;;;;;5039947;28;20719;-81
2023/04/04 01:48:12;;;;;;;1.55;0.20;;;-0.50;99.90;;;;;;5024379;28;20052;-80
2023/04/04 01:50:40;;;;;;;0.75;0.20;;;-0.60;99.90;;;;;;5019862;28;20029;-80
2023/04/04 01:53:06;;;;;;;0.63;0.20;;;-0.60;99.90;;;;;;5013635;28;20025;-80
2023/04/04 01:55:32;;;;;;;0.77;0.20;;;-0.60;99.90;;;;;;5036992;28;20022;-81
2023/04/04 01:57:58;;;;;;;1.05;0.30;;;-0.70;99.90;;;;;;5042805;28;20421;-80
2023/04/04 02:00:24;;;;;;;1.27;0.20;;;-0.80;99.90;;;;;;5038336;28;20033;-81
2023/04/04 02:02:50;;;;;;;1.25;0.30;;;-0.70;99.90;;;;;;5050728;28;20033;-81
2023/04/04 02:05:16;;;;;;;0.90;0.20;;;-0.80;99.90;;;;;;5014029;28;20091;-81
2023/04/04 02:07:47;;;;;;;0.80;0.20;;;-0.90;99.90;;;;;;5020273;28;20021;-80
2023/04/04 02:10:21;;;;;;;0.85;0.20;;;-0.80;99.90;;;;;;5024680;28;20033;-81
2023/04/04 02:12:47;;;;;;;1.10;0.30;;;-0.70;99.90;;;;;;5017019;28;20046;-80
2023/04/04 02:15:12;;;;;;;0.88;0.20;;;-0.70;99.90;;;;;;5007027;28;20034;-80
2023/04/04 02:17:38;;;;;;;0.80;0.20;;;-0.80;99.90;;;;;;5012308;28;20025;-80
2023/04/04 02:20:06;;;;;;;1.52;0.30;;;-0.90;99.90;;;;;;5020863;28;20821;-80
2023/04/04 02:22:34;;;;;;;0.93;0.28;;;-1.00;99.90;;;;;;5020618;28;20075;-80
2023/04/04 02:25:01;;;;;;;0.90;0.20;;;-1.10;99.90;;;;;;5018750;28;20025;-80
2023/04/04 02:27:27;;;;;;;1.25;0.20;;;-1.10;99.90;;;;;;5009931;28;20478;-80
2023/04/04 02:29:54;;;;;;;1.02;0.20;;;-1.10;99.90;;;;;;5039048;28;20383;-80
2023/04/04 02:32:20;;;;;;;0.80;0.20;;;-1.10;99.90;;;;;;5023606;28;20481;-80
2023/04/04 02:34:46;;;;;;;0.63;0.20;;;-1.10;99.90;;;;;;5028208;28;20037;-80
2023/04/04 02:37:13;;;;;;;1.10;0.40;;;-1.10;99.90;;;;;;5017684;28;20021;-80
2023/04/04 02:39:39;;;;;;;1.02;0.40;;;-1.00;99.90;;;;;;5023011;28;20512;-80
2023/04/04 02:42:05;;;;;;;1.50;0.20;;;-1.20;99.90;;;;;;5019755;28;20037;-80
2023/04/04 02:44:30;;;;;;;1.10;0.20;;;-1.20;99.90;;;;;;5011329;28;21631;-79
2023/04/04 02:46:56;;;;;;;0.90;0.20;;;-1.20;99.90;;;;;;5020308;28;20037;-79
2023/04/04 02:49:28;;;;;;;0.65;0.20;;;-1.20;99.90;;;;;;5022270;28;20082;-80
2023/04/04 02:51:54;;;;;;;0.95;0.20;;;-1.30;99.90;;;;;;5018863;28;20043;-80
2023/04/04 02:54:21;;;;;;;0.90;0.20;;;-1.30;99.90;;;;;;5012909;28;20026;-79
2023/04/04 02:56:46;;;;;;;0.68;0.20;;;-1.40;99.90;;;;;;5007979;28;20087;-80
2023/04/04 02:59:12;;;;;;;0.65;0.20;;;-1.40;99.90;;;;;;5025512;28;20037;-80
2023/04/04 03:01:38;;;;;;;1.63;0.38;;;-1.30;99.90;;;;;;5010504;28;20044;-80
2023/04/04 03:04:04;;;;;;;0.70;0.20;;;-1.30;99.90;;;;;;5017343;28;20139;-80
2023/04/04 03:06:31;;;;;;;0.80;0.20;;;-1.30;99.90;;;;;;5049651;28;20020;-79
2023/04/04 03:08:57;;;;;;;1.17;0.30;;;-1.40;99.90;;;;;;5030469;28;20022;-79
2023/04/04 03:11:23;;;;;;;1.60;0.20;;;-1.30;99.90;;;;;;5020507;28;20037;-79
2023/04/04 03:13:52;;;;;;;0.40;0.20;;;-1.40;99.90;;;;;;5008851;28;20038;-79
2023/04/04 03:16:21;;;;;;;2.92;0.10;;;-1.50;99.90;;;;;;5021864;28;20124;-79
2023/04/04 03:18:49;;;;;;;0.88;0.20;;;-1.50;99.90;;;;;;5020971;28;20033;-80
2023/04/04 03:21:18;;;;;;;2.05;0.20;;;-1.40;99.90;;;;;;5024232;28;20044;-79
2023/04/04 03:23:44;;;;;;;0.93;0.20;;;-1.70;99.90;;;;;;5008731;28;20026;-79
2023/04/04 03:26:10;;;;;;;0.70;0.10;;;-1.70;99.90;;;;;;5008781;28;20022;-79
2023/04/04 03:28:36;;;;;;;1.30;0.20;;;-1.60;99.90;;;;;;5022115;28;20564;-80
2023/04/04 03:31:04;;;;;;;1.13;0.20;;;-1.40;99.90;;;;;;5023080;28;20099;-80
2023/04/04 03:33:31;;;;;;;0.68;0.20;;;-1.30;99.90;;;;;;5016443;28;20063;-79
2023/04/04 03:35:58;;;;;;;0.70;0.10;;;-1.30;99.90;;;;;;5017040;28;20030;-79
2023/04/04 03:38:24;;;;;;;0.55;0.17;;;-1.40;99.90;;;;;;5037978;28;20029;-79
2023/04/04 03:41:00;;;;;;;0.80;0.20;;;-1.60;99.90;;;;;;5022544;28;20528;-79
2023/04/04 03:43:27;;;;;;;1.10;0.20;;;-1.70;99.90;;;;;;5032482;28;20060;-79
2023/04/04 03:45:54;;;;;;;0.70;0.15;;;-1.50;99.90;;;;;;5032823;28;20497;-80
2023/04/04 03:48:19;;;;;;;0.98;0.20;;;-1.60;99.90;;;;;;5035873;28;20065;-79
2023/04/04 03:50:46;;;;;;;1.17;0.20;;;-1.60;99.90;;;;;;5023123;28;20071;-79
2023/04/04 03:53:12;;;;;;;2.00;0.20;;;-1.60;99.90;;;;;;5028147;28;20025;-79
2023/04/04 03:55:41;;;;;;;1.38;0.20;;;-1.60;99.90;;;;;;5017002;28;20120;-79
2023/04/04 03:58:06;;;;;;;1.33;0.20;;;-1.70;99.90;;;;;;5016400;28;20072;-78
2023/04/04 04:00:32;;;;;;;0.93;0.20;;;-1.70;99.90;;;;;;5035899;28;20032;-79
2023/04/04 04:02:58;;;;;;;2.05;0.20;;;-1.70;99.90;;;;;;5022358;28;20030;-79
2023/04/04 04:05:24;;;;;;;0.50;0.13;;;-1.60;99.90;;;;;;5034917;28;20033;-79
2023/04/04 04:07:51;;;;;;;1.63;0.20;;;-1.50;99.90;;;;;;5006114;28;20414;-79
2023/04/04 04:10:17;;;;;;;0.60;0.20;;;-1.50;99.90;;;;;;5031040;28;20371;-79
2023/04/04 04:12:43;;;;;;;1.85;0.22;;;-1.70;99.90;;;;;;5015696;28;20050;-79
2023/04/04 04:15:09;;;;;;;0.77;0.30;;;-1.70;99.90;;;;;;5003520;28;20091;-79
2023/04/04 04:17:40;;;;;;;0.60;0.20;;;-1.70;99.90;;;;;;5018114;28;20032;-79
2023/04/04 04:20:07;;;;;;;;;;;-1.60;99.90;;;;;;5015842;28;20025;-79
2023/04/04 04:22:37;;;;;;;;;;;-1.70;99.90;;;;;;5017111;28;19924;-79
2023/04/04 04:25:04;;;;;;;1.35;0.17;;;-1.90;99.90;;;;;;5020010;28;19916;-79
2023/04/04 04:27:30;;;;;;;1.75;0.20;;;-1.90;99.90;;;;;;5034319;28;20512;-79
2023/04/04 04:29:56;;;;;;;1.83;0.20;;;-2.10;99.90;;;;;;5034532;28;20040;-79
2023/04/04 04:32:25;;;;;;;0.60;0.20;;;-2.00;99.90;;;;;;5010271;28;20077;-79
2023/04/04 04:34:52;;;;;;;0.53;0.20;;;-2.10;99.90;;;;;;5016462;28;20037;-79
2023/04/04 04:37:24;;;;;;;1.30;0.30;;;-2.10;99.90;;;;;;5010464;28;20647;-79
2023/04/04 04:39:53;;;;;;;;;;;-2.10;99.90;;;;;;5021332;28;20397;-79
2023/04/04 04:42:33;;;;;;;1.73;0.20;;;-2.20;99.90;;;;;;5020746;28;19917;-78
2023/04/04 04:45:00;;;;;;;1.60;0.20;;;-2.20;99.90;;;;;;5010599;28;20884;-79
2023/04/04 04:47:32;;;;;;;1.33;0.20;;;-2.10;99.90;;;;;;5017480;28;20040;-79
2023/04/04 04:50:00;;;;;;;0.82;0.20;;;-2.00;99.90;;;;;;5012846;28;20024;-79
2023/04/04 04:52:40;;;;;;;1.25;0.30;;;-1.90;99.90;;;;;;5020009;28;20152;-78
2023/04/04 04:55:06;;;;;;;0.63;0.20;;;-2.00;99.90;;;;;;5034520;28;20392;-78
2023/04/04 04:57:35;;;;;;;0.57;0.40;;;-2.00;99.90;;;;;;5016000;28;20057;-79
2023/04/04 05:00:06;;;;;;;1.17;0.20;;;-2.10;99.90;;;;;;5009474;28;20489;-77
2023/04/04 05:02:32;;;;;;;1.83;0.20;;;-2.10;99.90;;;;;;5017320;28;20037;-79
2023/04/04 05:04:58;;;;;;;1.02;0.30;;;-2.10;99.90;;;;;;5035076;28;20036;-80
2023/04/04 05:07:24;;;;;;;0.75;0.20;;;-2.10;99.90;;;;;;5034374;28;20060;-79
2023/04/04 05:09:52;;;;;;;0.93;0.20;;;-2.00;99.90;;;;;;5021737;28;20500;-78
2023/04/04 05:12:21;;;;;;;0.70;0.20;;;-2.10;99.90;;;;;;5019016;28;20428;-78
2023/04/04 05:14:49;;;;;;;1.58;0.30;;;-2.00;99.90;;;;;;5005727;28;20053;-79
2023/04/04 05:17:15;;;;;;;1.17;0.20;;;-2.00;99.90;;;;;;5028630;28;20507;-79
2023/04/04 05:19:42;;;;;;;0.93;0.30;;;-2.00;99.90;;;;;;5035787;28;20030;-78
2023/04/04 05:22:12;;;;;;;1.25;0.30;;;-2.20;99.90;;;;;;5008678;28;20139;-80
2023/04/04 05:24:47;;;;;;;1.05;0.20;;;-2.10;99.90;;;;;;5012678;28;20147;-78
2023/04/04 05:27:17;;;;;;;1.17;0.30;;;-2.00;99.90;;;;;;5005090;28;20042;-85
2023/04/04 05:29:47;;;;;;;1.38;0.30;;;-2.00;99.90;;;;;;5018007;28;20028;-83
2023/04/04 05:32:14;;;;;;;1.15;0.30;;;-2.00;99.90;;;;;;5010153;28;20041;-85
2023/04/04 05:34:43;;;;;;;1.05;0.20;;;-2.00;99.90;;;;;;5008960;28;20116;-83
2023/04/04 05:37:13;;;;;;;1.25;0.30;;;-2.10;99.90;;;;;;5008849;28;20078;-84
2023/04/04 05:39:40;;;;;;;2.33;0.25;;;-1.90;99.90;;;;;;5007097;28;20479;-84
2023/04/04 05:42:08;;;;;;;1.05;0.22;;;-1.80;99.90;;;;;;5024533;28;20541;-85
2023/04/04 05:44:38;;;;;;;0.88;0.20;;;-1.80;99.90;;;;;;5006281;28;20109;-85
2023/04/04 05:47:05;;;;;;;0.77;0.20;;;-1.70;99.90;;;;;;5022408;28;20045;-84
2023/04/04 05:49:31;;;;;;;1.10;0.30;;;-1.60;99.90;;;;;;5039623;28;20081;-85
2023/04/04 05:52:00;;;;;;;1.60;0.20;;;-1.60;99.90;;;;;;5022593;28;20071;-84
2023/04/04 05:54:26;;;;;;;1.20;0.30;;;-1.60;99.90;;;;;;5008367;28;20033;-84
2023/04/04 05:56:52;;;;;;;1.42;0.35;;;-1.60;99.90;;;;;;5024480;28;20509;-83
2023/04/04 05:59:36;;;;;;;1.15;0.30;;;-1.40;99.90;;;;;;5025639;28;20088;-84
2023/04/04 06:02:04;;;;;;;1.17;0.30;;;-1.40;99.90;;;;;;5025576;28;20472;-85
2023/04/04 06:04:31;;;;;;;1.20;0.30;;;-1.40;99.90;;;;;;5009006;28;20118;-84
2023/04/04 06:06:59;;;;;;;1.25;0.30;;;-1.20;99.90;;;;;;5024455;28;20175;-84
2023/04/04 06:09:26;;;;;;;0.90;0.30;;;-1.10;99.90;;;;;;5009054;28;20071;-84
2023/04/04 06:11:52;;;;;;;1.05;0.40;;;-1.00;99.90;;;;;;5024470;28;20045;-84
2023/04/04 06:14:18;;;;;;;1.45;0.40;;;-0.90;99.90;;;;;;5038898;28;20374;-84
2023/04/04 06:16:45;;;;;;;1.20;0.30;;;-0.80;99.90;;;;;;5006650;28;20833;-84
2023/04/04 06:19:12;;;;;;;1.13;0.30;;;-0.70;99.90;;;;;;5006800;28;20532;-84
2023/04/04 06:21:37;;;;;;;1.30;0.40;;;-0.60;99.90;;;;;;5005728;28;20045;-85
2023/04/04 06:24:04;;;;;;;1.40;0.40;;;-0.50;99.90;;;;;;5005635;28;20099;-85
2023/04/04 06:26:30;;;;;;;1.27;0.30;;;-0.40;99.90;;;;;;5007577;28;20033;-84
2023/04/04 06:28:56;;;;;;;1.00;0.38;;;-0.20;99.90;;;;;;5025526;28;20128;-84
2023/04/04 06:31:28;;;;;;;1.20;0.40;;;-0.10;99.90;;;;;;5006706;28;20443;-84
2023/04/04 06:34:00;;;;;;;0.90;0.30;;;0.10;99.90;;;;;;5023161;28;20036;-84
2023/04/04 06:36:26;;;;;;;1.92;0.40;;;0.20;99.90;;;;;;5021906;28;20094;-84
2023/04/04 06:38:51;;;;;;;1.50;0.40;;;0.40;99.90;;;;;;5023050;28;20025;-84
2023/04/04 06:41:21;;;;;;;1.40;0.30;;;0.50;99.90;;;;;;5006319;28;20055;-84
2023/04/04 06:43:49;;;;;;;1.10;0.40;;;0.60;99.90;;;;;;5007099;28;20312;-85
2023/04/04 06:46:14;;;;;;;2.40;0.40;;;0.70;99.90;;;;;;5023797;28;20568;-85
2023/04/04 06:48:41;;;;;;;1.35;0.38;;;0.80;99.90;;;;;;5023139;28;20778;-86
2023/04/04 06:51:07;;;;;;;1.30;0.40;;;1.00;99.90;;;;;;5021135;28;20624;-84
2023/04/04 06:53:34;;;;;;;2.22;0.50;;;1.10;99.90;;;;;;5021305;28;20671;-85
2023/04/04 06:56:01;;;;;;;0.68;0.30;;;1.20;99.90;;;;;;5005651;28;20041;-84
2023/04/04 06:58:26;;;;;;;0.80;0.30;;;1.30;99.90;;;;;;5023808;28;20079;-85
2023/04/04 07:00:52;;;;;;;3.67;0.35;;;1.40;99.90;;;;;;5029157;28;20568;-85
2023/04/04 07:03:19;;;;;;;2.25;0.50;;;1.50;99.90;;;;;;5024037;28;20470;-85
2023/04/04 07:05:45;;;;;;;1.67;0.40;;;1.60;99.90;;;;;;5023602;28;20033;-86
2023/04/04 07:08:11;;;;;;;1.98;0.45;;;1.70;99.90;;;;;;5040629;28;20060;-85
2023/04/04 07:10:36;;;;;;;2.40;0.40;;;1.80;99.90;;;;;;5024502;28;20355;-85
2023/04/04 07:13:02;;;;;;;2.60;0.43;;;1.90;99.90;;;;;;5022960;28;20514;-84
2023/04/04 07:15:28;;;;;;;1.83;0.40;;;2.10;99.90;;;;;;5007458;28;20044;-83
2023/04/04 07:17:54;;;;;;;2.20;0.40;;;2.40;99.90;;;;;;5022232;28;20029;-84
2023/04/04 07:20:20;;;;;;;2.80;0.40;;;2.50;99.90;;;;;;5006050;28;20619;-84
2023/04/04 07:22:45;;;;;;;1.60;0.40;;;2.60;99.90;;;;;;5021806;28;20645;-84
2023/04/04 07:25:12;;;;;;;2.17;0.50;;;2.60;99.90;;;;;;5006989;28;20571;-85
2023/04/04 07:27:39;;;;;;;1.85;0.60;;;2.60;99.90;;;;;;5038334;28;20034;-84
2023/04/04 07:30:07;;;;;;;1.55;0.52;;;2.80;99.90;;;;;;5022204;28;20028;-84
2023/04/04 07:32:32;;;;;;;2.53;0.50;;;2.90;99.90;;;;;;5021765;28;20030;-83
2023/04/04 07:34:58;;;;;;;1.67;0.50;;;3.20;99.90;;;;;;5004194;28;20500;-85
2023/04/04 07:37:25;;;;;;;1.77;0.50;;;3.30;99.90;;;;;;5020592;28;20037;-84
2023/04/04 07:39:51;;;;;;;1.48;0.40;;;3.50;99.90;;;;;;5005075;28;20080;-84
2023/04/04 07:42:21;;;;;;;1.30;0.50;;;3.60;99.90;;;;;;5005872;28;20650;-84
2023/04/04 07:44:53;;;;;;;1.60;0.50;;;3.80;99.90;;;;;;5022317;28;20026;-86
2023/04/04 07:47:20;;;;;;;2.35;0.43;;;3.80;99.90;;;;;;5012452;28;20033;-84
2023/04/04 07:49:46;;;;;;;1.65;0.47;;;3.90;99.90;;;;;;5021747;28;20068;-84
2023/04/04 07:52:12;;;;;;;0.98;0.40;;;4.10;99.90;;;;;;5022631;28;20032;-84
2023/04/04 07:54:39;;;;;;;2.28;0.50;;;4.30;99.90;;;;;;5004873;28;20556;-84
2023/04/04 07:57:05;;;;;;;2.45;0.40;;;4.30;99.90;;;;;;5005464;28;20401;-83
2023/04/04 07:59:35;;;;;;;1.77;0.60;;;4.40;99.90;;;;;;5012637;28;20051;-84
2023/04/04 08:02:01;;;;;;;1.98;0.40;;;4.60;99.90;;;;;;5027927;28;20045;-85
2023/04/04 08:04:26;;;;;;;1.70;0.40;;;4.90;99.90;;;;;;5004458;28;20065;-84
2023/04/04 08:06:52;;;;;;;2.25;0.50;;;5.10;99.90;;;;;;5005304;28;20036;-85
2023/04/04 08:09:18;;;;;;;2.25;1.05;;;5.10;99.90;;;;;;5005281;28;20033;-83
2023/04/04 08:11:44;;;;;;;2.00;0.50;;;5.30;99.90;;;;;;5012000;28;20049;-84
2023/04/04 08:14:12;;;;;;;2.45;0.50;;;5.50;99.90;;;;;;5018941;28;20057;-84
2023/04/04 08:16:39;;;;;;;1.00;0.40;;;5.80;99.90;;;;;;5004196;28;20053;-84
2023/04/04 08:19:05;;;;;;;2.05;0.43;;;5.90;99.90;;;;;;5020515;28;20397;-83
2023/04/04 08:21:31;;;;;;;1.50;0.40;;;6.10;99.90;;;;;;5003620;28;20049;-84
2023/04/04 08:23:57;;;;;;;2.22;0.40;;;6.20;99.90;;;;;;5003803;28;20067;-84
2023/04/04 08:26:22;;;;;;;1.50;0.40;;;6.30;99.90;;;;;;5020349;28;20494;-84
2023/04/04 08:28:49;;;;;;;1.50;0.50;;;6.50;99.90;;;;;;5004168;28;20030;-85
2023/04/04 08:31:15;;;;;;;1.10;0.30;;;6.50;99.90;;;;;;5003894;28;20279;-84
2023/04/04 08:33:41;;;;;;;1.10;0.30;;;6.70;99.90;;;;;;5002967;28;20463;-85
2023/04/04 08:36:07;;;;;;;1.77;0.30;;;6.80;99.90;;;;;;5003867;28;20131;-84
2023/04/04 08:38:33;;;;;;;1.17;0.30;;;6.90;99.90;;;;;;5003907;28;20404;-84
2023/04/04 08:40:59;;;;;;;0.93;0.20;;;7.10;99.90;;;;;;5020106;28;20033;-84
2023/04/04 08:43:26;;;;;;;2.55;0.30;;;6.90;99.90;;;;;;5002826;28;20043;-84
2023/04/04 08:45:53;;;;;;;1.10;0.40;;;6.90;99.90;;;;;;5002584;28;20087;-84
2023/04/04 08:48:20;;;;;;;2.08;0.30;;;7.10;99.90;;;;;;5004229;28;20021;-84
2023/04/04 08:50:46;;;;;;;1.52;0.30;;;7.20;99.90;;;;;;5013095;28;20514;-84
2023/04/04 08:53:13;;;;;;;1.70;0.35;;;7.30;99.90;;;;;;5037630;28;20029;-84
2023/04/04 08:55:38;;;;;;;1.83;0.30;;;7.50;99.90;;;;;;5022965;28;20361;-84
2023/04/04 08:58:04;;;;;;;2.25;0.35;;;7.60;99.90;;;;;;5014520;28;20453;-84
2023/04/04 09:00:31;;;;;;;1.42;0.32;;;7.70;99.90;;;;;;5017758;28;20051;-83
2023/04/04 09:02:59;;;;;;;2.38;0.35;;;7.70;99.90;;;;;;5018599;28;20098;-86
2023/04/04 09:05:25;;;;;;;2.50;0.40;;;7.60;99.90;;;;;;5016030;28;20443;-87
2023/04/04 09:07:53;;;;;;;1.60;0.40;;;7.30;99.90;;;;;;5013138;28;20025;-84
2023/04/04 09:10:19;;;;;;;1.00;0.30;;;7.60;99.90;;;;;;5014825;28;20381;-86
2023/04/04 09:12:47;;;;;;;1.08;0.40;;;7.90;99.90;;;;;;5014471;28;20052;-86
2023/04/04 09:15:13;;;;;;;1.73;0.20;;;8.00;99.90;;;;;;5013495;28;20041;-84
2023/04/04 09:17:39;;;;;;;0.60;0.20;;;8.00;99.90;;;;;;5010149;28;20029;-83
2023/04/04 09:20:37;;;;;;;3.28;0.30;;;8.20;99.90;;;;;;5013640;28;20043;-84
2023/04/04 09:23:05;;;;;;;3.20;0.50;;;7.90;99.90;;;;;;5023715;28;20159;-87
2023/04/04 09:25:31;;;;;;;1.73;0.30;;;8.20;99.90;;;;;;5022819;28;20186;-85
2023/04/04 09:27:57;;;;;;;1.15;0.32;;;8.20;99.90;;;;;;5024000;28;20046;-85
2023/04/04 09:30:23;;;;;;;1.48;0.40;;;8.50;99.90;;;;;;5024471;28;20886;-85
2023/04/04 09:32:50;;;;;;;1.55;0.38;;;8.50;99.90;;;;;;5024620;28;20290;-86
2023/04/04 09:35:15;;;;;;;1.20;0.20;;;8.40;99.90;;;;;;5009324;28;20033;-85
2023/04/04 09:37:42;;;;;;;3.28;0.30;;;8.70;99.90;;;;;;5023784;28;20029;-85
2023/04/04 09:40:09;;;;;;;0.82;0.30;;;8.90;99.90;;;;;;5024282;28;20139;-83
2023/04/04 09:42:35;;;;;;;2.80;0.40;;;8.70;99.90;;;;;;5012907;28;20051;-86
2023/04/04 09:45:01;;;;;;;1.95;0.30;;;8.80;99.90;;;;;;5023265;28;20036;-86
2023/04/04 09:47:29;;;;;;;0.93;0.30;;;8.70;99.90;;;;;;5007275;28;20032;-86
2023/04/04 09:49:59;;;;;;;1.23;0.30;;;8.80;99.90;;;;;;5006881;28;20040;-85
2023/04/04 09:52:25;;;;;;;3.22;0.40;;;8.80;99.90;;;;;;5008037;28;20033;-85
2023/04/04 09:54:56;;;;;;;4.15;0.40;;;8.80;99.90;;;;;;5007267;28;20052;-85
2023/04/04 09:57:23;;;;;;;0.98;0.30;;;8.80;99.90;;;;;;5013464;28;20563;-85
2023/04/04 09:59:48;;;;;;;1.38;0.30;;;8.90;99.90;;;;;;5021456;28;20438;-86
2023/04/04 10:02:15;;;;;;;1.42;0.20;;;9.10;99.90;;;;;;5005768;28;20084;-83
2023/04/04 10:04:41;;;;;;;1.05;0.20;;;9.20;99.90;;;;;;5007094;28;20037;-83
2023/04/04 10:07:12;;;;;;;1.83;0.30;;;9.40;99.90;;;;;;5022420;28;20442;-84
2023/04/04 10:09:38;;;;;;;1.20;0.30;;;9.50;99.90;;;;;;5037262;28;20102;-85
2023/04/04 10:12:08;;;;;;;3.72;0.50;;;9.60;99.90;;;;;;5023852;28;20049;-83
2023/04/04 10:14:35;;;;;;;1.35;0.32;;;9.10;99.90;;;;;;5011831;28;20568;-84
2023/04/04 10:17:12;;;;;;;1.50;0.30;;;9.60;99.90;;;;;;5039499;28;20123;-84
2023/04/04 10:19:38;;;;;;;2.03;0.40;;;10.00;99.90;;;;;;5020275;28;20673;-84
2023/04/04 10:22:08;;;;;;;0.93;0.30;;;9.60;99.90;;;;;;5007055;28;20041;-84
2023/04/04 10:24:34;;;;;;;;;;;9.90;99.90;;;;;;5021517;28;20103;-83
2023/04/04 10:27:00;;;;;;;2.13;0.68;;;9.60;99.90;;;;;;5021268;28;20927;-84
2023/04/04 10:29:26;;;;;;;2.60;0.60;;;8.90;99.90;;;;;;5003790;28;20035;-84
2023/04/04 10:32:08;;;;;;;2.42;0.40;;;9.00;99.90;;;;;;5022841;28;20033;-83
2023/04/04 10:34:48;;;;;;;2.30;0.50;;;9.30;99.90;;;;;;5038763;28;20041;-83
2023/04/04 10:37:23;;;;;;;2.47;0.50;;;9.40;99.90;;;;;;5007164;28;20048;-83
2023/04/04 10:39:54;;;;;;;0.77;0.32;;;9.30;99.90;;;;;;5039709;28;20106;-84
2023/04/04 10:42:22;;;;;;;2.35;0.45;;;9.20;99.90;;;;;;5038996;28;20060;-85
2023/04/04 10:44:49;;;;;;;2.70;0.40;;;9.40;99.90;;;;;;5039196;28;20401;-84
2023/04/04 10:47:20;;;;;;;1.55;0.40;;;9.40;99.90;;;;;;5007059;28;20044;-84
2023/04/04 10:49:47;;;;;;;1.30;0.40;;;9.70;99.90;;;;;;5021238;28;20547;-83
2023/04/04 10:52:18;;;;;;;1.95;0.45;;;9.90;99.90;;;;;;5021805;28;20044;-84
2023/04/04 10:54:45;;;;;;;1.90;0.50;;;10.20;99.90;;;;;;5022474;28;20072;-83
2023/04/04 10:57:12;;;;;;;2.92;0.70;;;10.10;99.90;;;;;;5022035;28;20037;-82
2023/04/04 11:00:04;;;;;;;2.35;0.52;;;9.20;99.90;;;;;;5011037;28;21847;-84
2023/04/04 11:02:45;;;;;;;2.58;0.55;;;9.60;99.90;;;;;;5022544;28;20307;-84
2023/04/04 11:05:17;;;;;;;2.72;0.50;;;10.00;99.90;;;;;;5013284;28;20045;-84
2023/04/04 11:07:45;;;;;;;3.80;0.80;;;10.10;99.90;;;;;;5022291;28;20033;-83
2023/04/04 11:10:22;;;;;;;2.58;0.57;;;9.00;99.90;;;;;;5011906;28;20029;-83
2023/04/04 11:12:53;;;;;;;1.90;0.35;;;9.50;99.90;;;;;;5005365;28;20053;-84
2023/04/04 11:15:25;;;;;;;1.20;0.30;;;10.00;99.90;;;;;;5023350;28;20040;-83
2023/04/04 11:17:56;;;;;;;1.40;0.30;;;10.20;99.90;;;;;;5006179;28;20056;-85
2023/04/04 11:20:23;;;;;;;2.55;0.43;;;10.00;99.90;;;;;;5011601;28;20037;-83
2023/04/04 11:22:50;;;;;;;1.60;0.50;;;9.90;99.90;;;;;;5023870;28;20041;-83
2023/04/04 11:25:29;;;;;;;1.65;0.40;;;10.40;99.90;;;;;;5006697;28;20037;-83
2023/04/04 11:27:56;;;;;;;2.05;0.57;;;10.50;99.90;;;;;;5025665;28;20377;-84
2023/04/04 11:30:22;;;;;;;3.78;0.93;;;10.30;99.90;;;;;;5038045;28;20036;-84
2023/04/04 11:32:49;;;;;;;3.45;0.63;;;10.00;99.90;;;;;;5022150;28;20255;-83
2023/04/04 11:35:15;;;;;;;4.00;0.60;;;9.70;99.90;;;;;;5006842;28;20040;-83
2023/04/04 11:37:50;;;;;;;1.10;0.40;;;10.20;99.90;;;;;;5022103;28;20065;-82
2023/04/04 11:40:16;;;;;;;2.08;0.52;;;10.60;99.90;;;;;;5020349;28;20126;-84
2023/04/04 11:42:42;;;;;;;3.53;0.50;;;10.70;99.90;;;;;;5022290;28;20219;-82
2023/04/04 11:45:18;;;;;;;1.95;0.50;;;10.70;99.90;;;;;;5005526;28;20721;-84
2023/04/04 11:47:47;;;;;;;4.35;0.80;;;10.70;99.90;;;;;;5003263;28;20083;-83
2023/04/04 11:50:15;;;;;;;4.10;0.70;;;10.20;99.90;;;;;;5021128;28;20064;-84
2023/04/04 11:52:44;;;;;;;4.82;0.80;;;10.00;99.90;;;;;;5020450;28;20029;-81
2023/04/04 11:55:15;;;;;;;2.10;0.80;;;9.70;99.90;;;;;;5035392;28;20853;-82
2023/04/04 11:57:41;;;;;;;2.28;0.50;;;9.50;99.90;;;;;;5003379;28;20107;-83
2023/04/04 12:00:07;;;;;;;2.58;0.57;;;10.50;99.90;;;;;;5019877;28;20041;-83
2023/04/04 12:02:35;;;;;;;1.63;0.40;;;10.70;99.90;;;;;;5021340;28;20045;-85
2023/04/04 12:05:03;;;;;;;1.98;0.40;;;11.00;99.90;;;;;;5004915;28;20083;-83
2023/04/04 12:07:29;;;;;;;1.45;0.40;;;10.80;99.90;;;;;;5002419;28;20144;-84
2023/04/04 12:09:56;;;;;;;2.78;0.60;;;10.90;99.90;;;;;;5019453;28;20042;-84
2023/04/04 12:12:22;;;;;;;2.92;0.38;;;11.10;99.90;;;;;;5009554;28;20501;-84
2023/04/04 12:14:48;;;;;;;2.80;0.40;;;10.90;99.90;;;;;;5035733;28;20044;-83
2023/04/04 12:17:15;;;;;;;1.63;0.40;;;11.00;99.90;;;;;;5002352;28;20044;-84
2023/04/04 12:19:42;;;;;;;2.42;0.30;;;11.00;99.90;;;;;;5019041;28;20029;-84
2023/04/04 12:22:08;;;;;;;0.90;0.30;;;10.90;99.90;;;;;;5005600;28;20065;-85
2023/04/04 12:24:34;;;;;;;2.33;0.40;;;11.10;99.90;;;;;;5003553;28;20676;-84
2023/04/04 12:27:02;;;;;;;2.55;0.80;;;10.90;99.90;;;;;;5026750;28;20161;-83
2023/04/04 12:29:34;;;;;;;4.68;0.90;;;10.40;99.90;;;;;;5003909;28;20120;-83
2023/04/04 12:32:01;;;;;;;3.25;0.50;;;9.90;99.90;;;;;;5012023;28;20132;-82
2023/04/04 12:34:40;;;;;;;1.50;0.30;;;10.50;99.90;;;;;;5004845;28;20025;-83
2023/04/04 12:37:10;;;;;;;1.48;0.40;;;11.00;99.90;;;;;;5003825;28;20033;-82
2023/04/04 12:39:45;;;;;;;1.10;0.40;;;11.10;99.90;;;;;;5015036;28;20445;-82
2023/04/04 12:42:11;;;;;;;2.97;0.52;;;11.00;99.90;;;;;;5022362;28;20053;-81
2023/04/04 12:44:38;;;;;;;1.65;0.40;;;10.80;99.90;;;;;;5037086;28;20029;-81
2023/04/04 12:47:06;;;;;;;1.75;0.88;;;11.30;99.90;;;;;;5023006;28;20132;-82
2023/04/04 12:49:34;;;;;;;2.42;0.40;;;11.30;99.90;;;;;;5003991;28;20033;-83
2023/04/04 12:52:03;;;;;;;1.20;0.30;;;11.30;99.90;;;;;;5021145;28;20033;-83
2023/04/04 12:54:31;;;;;;;2.25;0.40;;;11.70;99.90;;;;;;5020861;28;20073;-81
2023/04/04 12:56:58;;;;;;;2.40;0.60;;;11.20;99.90;;;;;;5004685;28;20032;-82